sensor_id;sensor_type;location;lat;lon;timestamp;P1;durP1;ratioP1;P2;durP2;ratioP2
75930;SDS011;64609;47.052;15.462;2023-04-10T00:00:04;7.65;;;6.13;;
75930;SDS011;64609;47.052;15.462;2023-04-10T00:02:31;6.50;;;5.43;;
75930;SDS011;64609;47.052;15.462;2023-04-10T00:04:57;6.35;;;5.57;;
75930;SDS011;64609;47.052;15.462;2023-04-10T00:07:23;7.68;;;5.40;;
75930;SDS011;64609;47.052;15.462;2023-04-10T00:09:49;7.30;;;5.45;;
75930;SDS011;64609;47.052;15.462;2023-04-10T00:12:15;8.00;;;5.50;;
75930;SDS011;64609;47.052;15.462;2023-04-10T00:14:40;6.78;;;5.07;;
75930;SDS011;64609;47.052;15.462;2023-04-10T00:17:06;6.40;;;5.53;;
75930;SDS011;64609;47.052;15.462;2023-04-10T00:19:32;6.72;;;5.80;;
75930;SDS011;64609;47.052;15.462;2023-04-10T00:21:58;8.40;;;5.95;;
75930;SDS011;64609;47.052;15.462;2023-04-10T00:24:24;8.85;;;6.25;;
75930;SDS011;64609;47.052;15.462;2023-04-10T00:26:50;13.15;;;7.00;;
75930;SDS011;64609;47.052;15.462;2023-04-10T00:29:15;12.10;;;7.50;;
75930;SDS011;64609;47.052;15.462;2023-04-10T00:31:41;11.68;;;6.95;;
75930;SDS011;64609;47.052;15.462;2023-04-10T00:34:06;8.35;;;6.38;;
75930;SDS011;64609;47.052;15.462;2023-04-10T00:36:33;9.88;;;6.65;;
75930;SDS011;64609;47.052;15.462;2023-04-10T00:38:59;8.50;;;6.13;;
75930;SDS011;64609;47.052;15.462;2023-04-10T00:41:25;8.60;;;6.40;;
75930;SDS011;64609;47.052;15.462;2023-04-10T00:43:57;8.38;;;6.30;;
75930;SDS011;64609;47.052;15.462;2023-04-10T00:46:24;7.93;;;6.35;;
75930;SDS011;64609;47.052;15.462;2023-04-10T00:48:50;7.47;;;5.75;;
75930;SDS011;64609;47.052;15.462;2023-04-10T00:51:16;8.38;;;6.30;;
75930;SDS011;64609;47.052;15.462;2023-04-10T00:53:47;6.47;;;5.50;;
75930;SDS011;64609;47.052;15.462;2023-04-10T00:56:15;8.52;;;6.20;;
75930;SDS011;64609;47.052;15.462;2023-04-10T00:58:44;7.70;;;5.50;;
75930;SDS011;64609;47.052;15.462;2023-04-10T01:01:11;7.93;;;5.43;;
75930;SDS011;64609;47.052;15.462;2023-04-10T01:03:37;8.20;;;5.95;;
75930;SDS011;64609;47.052;15.462;2023-04-10T01:06:14;7.80;;;6.25;;
75930;SDS011;64609;47.052;15.462;2023-04-10T01:14:17;10.98;;;6.00;;
75930;SDS011;64609;47.052;15.462;2023-04-10T01:22:09;8.52;;;5.80;;
75930;SDS011;64609;47.052;15.462;2023-04-10T01:27:14;6.82;;;5.20;;
75930;SDS011;64609;47.052;15.462;2023-04-10T01:30:03;7.22;;;5.70;;
75930;SDS011;64609;47.052;15.462;2023-04-10T01:32:30;8.88;;;6.38;;
75930;SDS011;64609;47.052;15.462;2023-04-10T01:34:58;7.25;;;5.82;;
75930;SDS011;64609;47.052;15.462;2023-04-10T01:37:30;6.65;;;5.57;;
75930;SDS011;64609;47.052;15.462;2023-04-10T01:40:02;8.95;;;6.18;;
75930;SDS011;64609;47.052;15.462;2023-04-10T01:42:39;9.35;;;6.47;;
75930;SDS011;64609;47.052;15.462;2023-04-10T01:45:11;7.97;;;6.60;;
75930;SDS011;64609;47.052;15.462;2023-04-10T01:47:42;11.23;;;6.10;;
75930;SDS011;64609;47.052;15.462;2023-04-10T01:50:08;10.60;;;6.28;;
75930;SDS011;64609;47.052;15.462;2023-04-10T01:52:36;8.48;;;6.25;;
75930;SDS011;64609;47.052;15.462;2023-04-10T01:55:02;10.45;;;7.28;;
75930;SDS011;64609;47.052;15.462;2023-04-10T01:57:30;16.77;;;11.35;;
75930;SDS011;64609;47.052;15.462;2023-04-10T01:59:56;23.70;;;13.73;;
75930;SDS011;64609;47.052;15.462;2023-04-10T02:02:22;16.75;;;10.95;;
75930;SDS011;64609;47.052;15.462;2023-04-10T02:04:48;13.23;;;9.18;;
75930;SDS011;64609;47.052;15.462;2023-04-10T02:07:19;11.48;;;8.18;;
75930;SDS011;64609;47.052;15.462;2023-04-10T02:10:03;13.70;;;7.95;;
75930;SDS011;64609;47.052;15.462;2023-04-10T02:12:40;9.43;;;7.35;;
75930;SDS011;64609;47.052;15.462;2023-04-10T02:15:25;12.13;;;8.65;;
75930;SDS011;64609;47.052;15.462;2023-04-10T02:17:52;12.00;;;7.47;;
75930;SDS011;64609;47.052;15.462;2023-04-10T02:20:20;10.52;;;7.53;;
75930;SDS011;64609;47.052;15.462;2023-04-10T02:22:47;10.13;;;7.30;;
75930;SDS011;64609;47.052;15.462;2023-04-10T02:25:13;11.77;;;7.55;;
75930;SDS011;64609;47.052;15.462;2023-04-10T02:27:40;11.93;;;8.23;;
75930;SDS011;64609;47.052;15.462;2023-04-10T02:30:06;11.95;;;8.63;;
75930;SDS011;64609;47.052;15.462;2023-04-10T02:32:32;9.93;;;8.40;;
75930;SDS011;64609;47.052;15.462;2023-04-10T02:34:58;14.32;;;10.50;;
75930;SDS011;64609;47.052;15.462;2023-04-10T02:37:24;13.75;;;8.93;;
75930;SDS011;64609;47.052;15.462;2023-04-10T02:39:50;10.55;;;8.20;;
75930;SDS011;64609;47.052;15.462;2023-04-10T02:42:16;16.67;;;10.73;;
75930;SDS011;64609;47.052;15.462;2023-04-10T02:44:42;20.00;;;10.65;;
75930;SDS011;64609;47.052;15.462;2023-04-10T02:47:08;15.10;;;9.93;;
75930;SDS011;64609;47.052;15.462;2023-04-10T02:49:33;15.63;;;9.75;;
75930;SDS011;64609;47.052;15.462;2023-04-10T02:51:59;15.82;;;10.18;;
75930;SDS011;64609;47.052;15.462;2023-04-10T02:54:25;15.40;;;11.13;;
75930;SDS011;64609;47.052;15.462;2023-04-10T02:56:51;12.57;;;8.20;;
75930;SDS011;64609;47.052;15.462;2023-04-10T02:59:16;13.82;;;10.00;;
75930;SDS011;64609;47.052;15.462;2023-04-10T03:01:42;19.63;;;11.00;;
75930;SDS011;64609;47.052;15.462;2023-04-10T03:04:09;13.45;;;7.70;;
75930;SDS011;64609;47.052;15.462;2023-04-10T03:06:35;8.43;;;6.72;;
75930;SDS011;64609;47.052;15.462;2023-04-10T03:09:00;11.40;;;7.43;;
75930;SDS011;64609;47.052;15.462;2023-04-10T03:11:26;10.48;;;7.13;;
75930;SDS011;64609;47.052;15.462;2023-04-10T03:13:52;7.28;;;6.05;;
75930;SDS011;64609;47.052;15.462;2023-04-10T03:16:17;7.28;;;5.82;;
75930;SDS011;64609;47.052;15.462;2023-04-10T03:18:44;8.15;;;6.00;;
75930;SDS011;64609;47.052;15.462;2023-04-10T03:21:10;8.82;;;5.90;;
75930;SDS011;64609;47.052;15.462;2023-04-10T03:23:35;9.23;;;5.90;;
75930;SDS011;64609;47.052;15.462;2023-04-10T03:26:01;7.05;;;5.45;;
75930;SDS011;64609;47.052;15.462;2023-04-10T03:28:28;7.15;;;5.57;;
75930;SDS011;64609;47.052;15.462;2023-04-10T03:30:54;13.70;;;9.10;;
75930;SDS011;64609;47.052;15.462;2023-04-10T03:33:20;13.27;;;8.68;;
75930;SDS011;64609;47.052;15.462;2023-04-10T03:35:46;12.15;;;8.07;;
75930;SDS011;64609;47.052;15.462;2023-04-10T03:38:12;12.10;;;7.30;;
75930;SDS011;64609;47.052;15.462;2023-04-10T03:40:38;9.10;;;6.57;;
75930;SDS011;64609;47.052;15.462;2023-04-10T03:43:03;9.68;;;7.22;;
75930;SDS011;64609;47.052;15.462;2023-04-10T03:45:29;9.27;;;6.28;;
75930;SDS011;64609;47.052;15.462;2023-04-10T03:47:55;9.10;;;6.32;;
75930;SDS011;64609;47.052;15.462;2023-04-10T03:50:20;11.13;;;6.95;;
75930;SDS011;64609;47.052;15.462;2023-04-10T03:52:46;8.38;;;6.38;;
75930;SDS011;64609;47.052;15.462;2023-04-10T03:55:13;9.27;;;6.85;;
75930;SDS011;64609;47.052;15.462;2023-04-10T03:57:43;8.52;;;6.45;;
75930;SDS011;64609;47.052;15.462;2023-04-10T04:00:10;7.60;;;5.97;;
75930;SDS011;64609;47.052;15.462;2023-04-10T04:02:36;7.63;;;5.95;;
75930;SDS011;64609;47.052;15.462;2023-04-10T04:05:02;7.88;;;5.20;;
75930;SDS011;64609;47.052;15.462;2023-04-10T04:07:28;7.68;;;5.95;;
75930;SDS011;64609;47.052;15.462;2023-04-10T04:09:54;10.80;;;6.53;;
75930;SDS011;64609;47.052;15.462;2023-04-10T04:12:19;8.40;;;5.80;;
75930;SDS011;64609;47.052;15.462;2023-04-10T04:14:45;10.18;;;6.22;;
75930;SDS011;64609;47.052;15.462;2023-04-10T04:17:11;10.23;;;6.30;;
75930;SDS011;64609;47.052;15.462;2023-04-10T04:19:36;9.25;;;6.57;;
75930;SDS011;64609;47.052;15.462;2023-04-10T04:22:02;10.60;;;7.30;;
75930;SDS011;64609;47.052;15.462;2023-04-10T04:24:28;10.80;;;6.50;;
75930;SDS011;64609;47.052;15.462;2023-04-10T04:26:53;8.80;;;6.50;;
75930;SDS011;64609;47.052;15.462;2023-04-10T04:29:20;8.98;;;5.97;;
75930;SDS011;64609;47.052;15.462;2023-04-10T04:31:46;10.38;;;6.95;;
75930;SDS011;64609;47.052;15.462;2023-04-10T04:34:12;9.60;;;6.22;;
75930;SDS011;64609;47.052;15.462;2023-04-10T04:36:37;12.48;;;7.47;;
75930;SDS011;64609;47.052;15.462;2023-04-10T04:39:03;7.70;;;6.10;;
75930;SDS011;64609;47.052;15.462;2023-04-10T04:41:29;8.25;;;6.35;;
75930;SDS011;64609;47.052;15.462;2023-04-10T04:43:56;13.48;;;6.72;;
75930;SDS011;64609;47.052;15.462;2023-04-10T04:46:22;9.50;;;6.47;;
75930;SDS011;64609;47.052;15.462;2023-04-10T04:48:48;9.18;;;6.60;;
75930;SDS011;64609;47.052;15.462;2023-04-10T04:51:14;7.43;;;5.82;;
75930;SDS011;64609;47.052;15.462;2023-04-10T04:53:40;8.13;;;6.78;;
75930;SDS011;64609;47.052;15.462;2023-04-10T04:56:05;8.23;;;6.35;;
75930;SDS011;64609;47.052;15.462;2023-04-10T04:58:31;9.32;;;6.70;;
75930;SDS011;64609;47.052;15.462;2023-04-10T05:00:57;10.65;;;6.57;;
75930;SDS011;64609;47.052;15.462;2023-04-10T05:03:23;9.48;;;6.60;;
75930;SDS011;64609;47.052;15.462;2023-04-10T05:05:49;8.07;;;6.68;;
75930;SDS011;64609;47.052;15.462;2023-04-10T05:08:15;10.38;;;7.72;;
75930;SDS011;64609;47.052;15.462;2023-04-10T05:10:40;15.48;;;11.50;;
75930;SDS011;64609;47.052;15.462;2023-04-10T05:13:06;15.48;;;9.48;;
75930;SDS011;64609;47.052;15.462;2023-04-10T05:15:31;12.25;;;9.45;;
75930;SDS011;64609;47.052;15.462;2023-04-10T05:17:57;11.55;;;9.10;;
75930;SDS011;64609;47.052;15.462;2023-04-10T05:20:23;13.85;;;9.40;;
75930;SDS011;64609;47.052;15.462;2023-04-10T05:22:49;10.60;;;8.77;;
75930;SDS011;64609;47.052;15.462;2023-04-10T05:25:16;15.90;;;8.80;;
75930;SDS011;64609;47.052;15.462;2023-04-10T05:27:42;10.85;;;8.60;;
75930;SDS011;64609;47.052;15.462;2023-04-10T05:30:08;10.25;;;8.15;;
75930;SDS011;64609;47.052;15.462;2023-04-10T05:32:34;11.45;;;8.85;;
75930;SDS011;64609;47.052;15.462;2023-04-10T05:35:00;11.98;;;9.05;;
75930;SDS011;64609;47.052;15.462;2023-04-10T05:37:25;10.80;;;7.70;;
75930;SDS011;64609;47.052;15.462;2023-04-10T05:39:51;11.65;;;8.45;;
75930;SDS011;64609;47.052;15.462;2023-04-10T05:42:16;13.60;;;8.10;;
75930;SDS011;64609;47.052;15.462;2023-04-10T05:44:43;11.75;;;8.10;;
75930;SDS011;64609;47.052;15.462;2023-04-10T05:47:09;10.88;;;8.10;;
75930;SDS011;64609;47.052;15.462;2023-04-10T05:49:35;11.68;;;7.63;;
75930;SDS011;64609;47.052;15.462;2023-04-10T05:52:00;10.95;;;7.30;;
75930;SDS011;64609;47.052;15.462;2023-04-10T05:54:26;10.05;;;7.80;;
75930;SDS011;64609;47.052;15.462;2023-04-10T05:56:52;13.98;;;7.68;;
75930;SDS011;64609;47.052;15.462;2023-04-10T05:59:17;9.82;;;7.28;;
75930;SDS011;64609;47.052;15.462;2023-04-10T06:01:43;10.95;;;8.00;;
75930;SDS011;64609;47.052;15.462;2023-04-10T06:04:11;11.60;;;7.90;;
75930;SDS011;64609;47.052;15.462;2023-04-10T06:06:37;12.02;;;7.95;;
75930;SDS011;64609;47.052;15.462;2023-04-10T06:09:02;11.95;;;8.32;;
75930;SDS011;64609;47.052;15.462;2023-04-10T06:11:28;13.63;;;8.02;;
75930;SDS011;64609;47.052;15.462;2023-04-10T06:13:54;10.10;;;7.90;;
75930;SDS011;64609;47.052;15.462;2023-04-10T06:16:20;11.27;;;8.15;;
75930;SDS011;64609;47.052;15.462;2023-04-10T06:18:46;10.20;;;7.85;;
75930;SDS011;64609;47.052;15.462;2023-04-10T06:21:12;10.60;;;7.80;;
75930;SDS011;64609;47.052;15.462;2023-04-10T06:23:38;10.18;;;8.20;;
75930;SDS011;64609;47.052;15.462;2023-04-10T06:26:04;10.85;;;7.80;;
75930;SDS011;64609;47.052;15.462;2023-04-10T06:28:30;13.82;;;8.30;;
75930;SDS011;64609;47.052;15.462;2023-04-10T06:30:56;10.48;;;7.43;;
75930;SDS011;64609;47.052;15.462;2023-04-10T06:33:22;9.98;;;7.30;;
75930;SDS011;64609;47.052;15.462;2023-04-10T06:35:47;12.85;;;8.43;;
75930;SDS011;64609;47.052;15.462;2023-04-10T06:38:14;11.60;;;8.23;;
75930;SDS011;64609;47.052;15.462;2023-04-10T06:40:40;10.88;;;8.27;;
75930;SDS011;64609;47.052;15.462;2023-04-10T06:43:06;11.63;;;7.78;;
75930;SDS011;64609;47.052;15.462;2023-04-10T06:45:31;10.13;;;8.07;;
75930;SDS011;64609;47.052;15.462;2023-04-10T06:47:57;10.05;;;7.70;;
75930;SDS011;64609;47.052;15.462;2023-04-10T06:50:23;10.88;;;8.07;;
75930;SDS011;64609;47.052;15.462;2023-04-10T06:52:48;11.35;;;7.32;;
75930;SDS011;64609;47.052;15.462;2023-04-10T06:55:14;11.32;;;8.05;;
75930;SDS011;64609;47.052;15.462;2023-04-10T06:57:40;12.05;;;8.20;;
75930;SDS011;64609;47.052;15.462;2023-04-10T07:00:06;9.77;;;7.80;;
75930;SDS011;64609;47.052;15.462;2023-04-10T07:02:33;10.55;;;7.80;;
75930;SDS011;64609;47.052;15.462;2023-04-10T07:04:59;12.65;;;8.07;;
75930;SDS011;64609;47.052;15.462;2023-04-10T07:07:25;11.95;;;8.63;;
75930;SDS011;64609;47.052;15.462;2023-04-10T07:09:51;11.77;;;8.13;;
75930;SDS011;64609;47.052;15.462;2023-04-10T07:12:16;10.13;;;7.85;;
75930;SDS011;64609;47.052;15.462;2023-04-10T07:14:42;9.20;;;7.35;;
75930;SDS011;64609;47.052;15.462;2023-04-10T07:17:07;10.55;;;7.60;;
75930;SDS011;64609;47.052;15.462;2023-04-10T07:19:33;10.20;;;7.55;;
75930;SDS011;64609;47.052;15.462;2023-04-10T07:21:59;10.18;;;7.85;;
75930;SDS011;64609;47.052;15.462;2023-04-10T07:24:25;12.82;;;8.10;;
75930;SDS011;64609;47.052;15.462;2023-04-10T07:26:51;9.32;;;7.20;;
75930;SDS011;64609;47.052;15.462;2023-04-10T07:29:17;10.40;;;7.70;;
75930;SDS011;64609;47.052;15.462;2023-04-10T07:31:43;9.38;;;7.43;;
75930;SDS011;64609;47.052;15.462;2023-04-10T07:34:09;10.63;;;7.43;;
75930;SDS011;64609;47.052;15.462;2023-04-10T07:36:35;10.45;;;7.63;;
75930;SDS011;64609;47.052;15.462;2023-04-10T07:39:01;10.88;;;7.80;;
75930;SDS011;64609;47.052;15.462;2023-04-10T07:41:27;14.18;;;7.38;;
75930;SDS011;64609;47.052;15.462;2023-04-10T07:43:53;13.38;;;8.52;;
75930;SDS011;64609;47.052;15.462;2023-04-10T07:46:18;8.40;;;6.68;;
75930;SDS011;64609;47.052;15.462;2023-04-10T07:48:44;9.30;;;6.78;;
75930;SDS011;64609;47.052;15.462;2023-04-10T07:51:11;10.32;;;6.95;;
75930;SDS011;64609;47.052;15.462;2023-04-10T07:53:38;8.40;;;6.60;;
75930;SDS011;64609;47.052;15.462;2023-04-10T07:56:04;9.20;;;7.07;;
75930;SDS011;64609;47.052;15.462;2023-04-10T07:58:30;9.98;;;6.50;;
75930;SDS011;64609;47.052;15.462;2023-04-10T08:00:57;8.95;;;7.10;;
75930;SDS011;64609;47.052;15.462;2023-04-10T08:03:22;7.68;;;6.35;;
75930;SDS011;64609;47.052;15.462;2023-04-10T08:05:48;9.75;;;7.00;;
75930;SDS011;64609;47.052;15.462;2023-04-10T08:08:14;10.45;;;6.97;;
75930;SDS011;64609;47.052;15.462;2023-04-10T08:10:40;8.50;;;6.65;;
75930;SDS011;64609;47.052;15.462;2023-04-10T08:13:06;10.85;;;6.13;;
75930;SDS011;64609;47.052;15.462;2023-04-10T08:15:32;7.30;;;5.43;;
75930;SDS011;64609;47.052;15.462;2023-04-10T08:17:58;7.60;;;6.03;;
75930;SDS011;64609;47.052;15.462;2023-04-10T08:20:23;7.63;;;5.95;;
75930;SDS011;64609;47.052;15.462;2023-04-10T08:22:49;7.80;;;5.95;;
75930;SDS011;64609;47.052;15.462;2023-04-10T08:25:15;6.45;;;5.30;;
75930;SDS011;64609;47.052;15.462;2023-04-10T08:27:40;7.93;;;5.75;;
75930;SDS011;64609;47.052;15.462;2023-04-10T08:30:06;9.43;;;7.18;;
75930;SDS011;64609;47.052;15.462;2023-04-10T08:32:32;12.48;;;7.00;;
75930;SDS011;64609;47.052;15.462;2023-04-10T08:34:58;10.23;;;7.00;;
75930;SDS011;64609;47.052;15.462;2023-04-10T08:37:24;10.43;;;7.57;;
75930;SDS011;64609;47.052;15.462;2023-04-10T08:39:50;8.32;;;6.95;;
75930;SDS011;64609;47.052;15.462;2023-04-10T08:42:16;10.15;;;7.13;;
75930;SDS011;64609;47.052;15.462;2023-04-10T08:44:42;8.32;;;6.90;;
75930;SDS011;64609;47.052;15.462;2023-04-10T08:47:07;8.38;;;6.72;;
75930;SDS011;64609;47.052;15.462;2023-04-10T08:49:42;13.02;;;6.68;;
75930;SDS011;64609;47.052;15.462;2023-04-10T08:52:13;12.48;;;6.03;;
75930;SDS011;64609;47.052;15.462;2023-04-10T08:54:42;7.78;;;6.00;;
75930;SDS011;64609;47.052;15.462;2023-04-10T08:57:11;7.57;;;6.10;;
75930;SDS011;64609;47.052;15.462;2023-04-10T08:59:44;8.32;;;6.32;;
75930;SDS011;64609;47.052;15.462;2023-04-10T09:02:14;8.85;;;5.75;;
75930;SDS011;64609;47.052;15.462;2023-04-10T09:04:42;7.55;;;5.68;;
75930;SDS011;64609;47.052;15.462;2023-04-10T09:07:16;7.10;;;5.93;;
75930;SDS011;64609;47.052;15.462;2023-04-10T09:09:42;5.80;;;5.07;;
75930;SDS011;64609;47.052;15.462;2023-04-10T09:12:08;6.60;;;5.28;;
75930;SDS011;64609;47.052;15.462;2023-04-10T09:14:36;7.63;;;5.55;;
75930;SDS011;64609;47.052;15.462;2023-04-10T09:17:12;9.45;;;5.15;;
75930;SDS011;64609;47.052;15.462;2023-04-10T09:19:48;6.90;;;5.50;;
75930;SDS011;64609;47.052;15.462;2023-04-10T09:22:16;7.55;;;5.25;;
75930;SDS011;64609;47.052;15.462;2023-04-10T09:24:44;7.95;;;5.57;;
75930;SDS011;64609;47.052;15.462;2023-04-10T09:27:26;5.95;;;5.25;;
75930;SDS011;64609;47.052;15.462;2023-04-10T09:30:06;7.10;;;5.20;;
75930;SDS011;64609;47.052;15.462;2023-04-10T09:35:12;6.07;;;5.28;;
75930;SDS011;64609;47.052;15.462;2023-04-10T09:37:39;8.98;;;5.75;;
75930;SDS011;64609;47.052;15.462;2023-04-10T09:40:18;7.00;;;5.15;;
75930;SDS011;64609;47.052;15.462;2023-04-10T09:42:45;6.32;;;5.38;;
75930;SDS011;64609;47.052;15.462;2023-04-10T09:45:11;7.45;;;5.57;;
75930;SDS011;64609;47.052;15.462;2023-04-10T09:47:36;8.57;;;6.20;;
75930;SDS011;64609;47.052;15.462;2023-04-10T09:50:02;6.60;;;5.90;;
75930;SDS011;64609;47.052;15.462;2023-04-10T09:52:28;7.05;;;5.85;;
75930;SDS011;64609;47.052;15.462;2023-04-10T09:55:02;6.95;;;5.90;;
75930;SDS011;64609;47.052;15.462;2023-04-10T09:57:30;6.60;;;5.60;;
75930;SDS011;64609;47.052;15.462;2023-04-10T09:59:58;5.63;;;4.93;;
75930;SDS011;64609;47.052;15.462;2023-04-10T10:02:27;5.85;;;5.13;;
75930;SDS011;64609;47.052;15.462;2023-04-10T10:04:54;6.53;;;4.93;;
75930;SDS011;64609;47.052;15.462;2023-04-10T10:07:24;7.97;;;5.30;;
75930;SDS011;64609;47.052;15.462;2023-04-10T10:09:50;6.05;;;5.13;;
75930;SDS011;64609;47.052;15.462;2023-04-10T10:12:21;6.10;;;5.38;;
75930;SDS011;64609;47.052;15.462;2023-04-10T10:15:00;7.45;;;5.90;;
75930;SDS011;64609;47.052;15.462;2023-04-10T10:17:37;6.95;;;5.78;;
75930;SDS011;64609;47.052;15.462;2023-04-10T10:20:09;7.60;;;5.80;;
75930;SDS011;64609;47.052;15.462;2023-04-10T10:22:37;7.40;;;5.85;;
75930;SDS011;64609;47.052;15.462;2023-04-10T10:25:03;6.50;;;5.35;;
75930;SDS011;64609;47.052;15.462;2023-04-10T10:27:30;8.90;;;5.72;;
75930;SDS011;64609;47.052;15.462;2023-04-10T10:29:58;8.05;;;5.72;;
75930;SDS011;64609;47.052;15.462;2023-04-10T10:32:25;8.52;;;5.53;;
75930;SDS011;64609;47.052;15.462;2023-04-10T10:34:51;5.78;;;4.88;;
75930;SDS011;64609;47.052;15.462;2023-04-10T10:37:21;5.60;;;4.95;;
75930;SDS011;64609;47.052;15.462;2023-04-10T10:39:58;6.38;;;5.10;;
75930;SDS011;64609;47.052;15.462;2023-04-10T10:45:17;6.13;;;4.85;;
75930;SDS011;64609;47.052;15.462;2023-04-10T10:47:49;6.55;;;4.57;;
75930;SDS011;64609;47.052;15.462;2023-04-10T10:50:17;6.90;;;5.27;;
75930;SDS011;64609;47.052;15.462;2023-04-10T10:52:43;5.95;;;5.05;;
75930;SDS011;64609;47.052;15.462;2023-04-10T10:58:06;5.75;;;5.10;;
75930;SDS011;64609;47.052;15.462;2023-04-10T11:06:01;7.35;;;6.35;;
75930;SDS011;64609;47.052;15.462;2023-04-10T11:08:39;7.28;;;5.95;;
75930;SDS011;64609;47.052;15.462;2023-04-10T11:11:21;7.93;;;6.27;;
75930;SDS011;64609;47.052;15.462;2023-04-10T11:16:17;9.13;;;6.40;;
75930;SDS011;64609;47.052;15.462;2023-04-10T11:21:22;8.05;;;6.00;;
75930;SDS011;64609;47.052;15.462;2023-04-10T11:24:00;8.93;;;6.55;;
75930;SDS011;64609;47.052;15.462;2023-04-10T11:28:59;9.15;;;6.38;;
75930;SDS011;64609;47.052;15.462;2023-04-10T11:31:26;7.10;;;5.93;;
75930;SDS011;64609;47.052;15.462;2023-04-10T11:36:21;7.32;;;6.03;;
75930;SDS011;64609;47.052;15.462;2023-04-10T11:41:38;8.95;;;6.65;;
75930;SDS011;64609;47.052;15.462;2023-04-10T11:44:11;7.95;;;6.28;;
75930;SDS011;64609;47.052;15.462;2023-04-10T11:46:47;8.65;;;6.75;;
75930;SDS011;64609;47.052;15.462;2023-04-10T11:49:19;9.05;;;6.70;;
75930;SDS011;64609;47.052;15.462;2023-04-10T11:51:50;7.90;;;6.80;;
75930;SDS011;64609;47.052;15.462;2023-04-10T11:54:20;9.93;;;6.93;;
75930;SDS011;64609;47.052;15.462;2023-04-10T11:57:03;8.20;;;6.47;;
75930;SDS011;64609;47.052;15.462;2023-04-10T11:59:30;7.28;;;6.03;;
75930;SDS011;64609;47.052;15.462;2023-04-10T12:02:07;7.80;;;6.55;;
75930;SDS011;64609;47.052;15.462;2023-04-10T12:04:33;12.93;;;7.97;;
75930;SDS011;64609;47.052;15.462;2023-04-10T12:06:59;9.15;;;7.57;;
75930;SDS011;64609;47.052;15.462;2023-04-10T12:09:25;9.43;;;7.18;;
75930;SDS011;64609;47.052;15.462;2023-04-10T12:14:27;8.15;;;6.43;;
75930;SDS011;64609;47.052;15.462;2023-04-10T12:17:01;8.55;;;6.63;;
75930;SDS011;64609;47.052;15.462;2023-04-10T12:19:28;9.40;;;7.18;;
75930;SDS011;64609;47.052;15.462;2023-04-10T12:21:54;9.90;;;7.70;;
75930;SDS011;64609;47.052;15.462;2023-04-10T12:24:43;10.07;;;6.57;;
75930;SDS011;64609;47.052;15.462;2023-04-10T12:27:18;17.27;;;7.07;;
75930;SDS011;64609;47.052;15.462;2023-04-10T12:29:52;8.47;;;6.70;;
75930;SDS011;64609;47.052;15.462;2023-04-10T12:32:19;9.25;;;7.45;;
75930;SDS011;64609;47.052;15.462;2023-04-10T12:34:51;10.07;;;7.65;;
75930;SDS011;64609;47.052;15.462;2023-04-10T12:37:21;8.43;;;6.93;;
75930;SDS011;64609;47.052;15.462;2023-04-10T12:40:10;8.75;;;7.10;;
75930;SDS011;64609;47.052;15.462;2023-04-10T12:42:38;9.13;;;6.78;;
75930;SDS011;64609;47.052;15.462;2023-04-10T12:45:06;8.13;;;7.20;;
75930;SDS011;64609;47.052;15.462;2023-04-10T12:47:41;9.30;;;7.20;;
75930;SDS011;64609;47.052;15.462;2023-04-10T12:50:17;8.27;;;6.80;;
75930;SDS011;64609;47.052;15.462;2023-04-10T12:52:45;9.00;;;8.05;;
75930;SDS011;64609;47.052;15.462;2023-04-10T12:55:25;9.02;;;7.15;;
75930;SDS011;64609;47.052;15.462;2023-04-10T12:57:52;11.35;;;7.75;;
75930;SDS011;64609;47.052;15.462;2023-04-10T13:00:19;8.30;;;7.20;;
75930;SDS011;64609;47.052;15.462;2023-04-10T13:02:45;8.82;;;7.10;;
75930;SDS011;64609;47.052;15.462;2023-04-10T13:05:12;8.68;;;7.13;;
75930;SDS011;64609;47.052;15.462;2023-04-10T13:07:38;8.82;;;7.05;;
75930;SDS011;64609;47.052;15.462;2023-04-10T13:10:05;10.55;;;7.05;;
75930;SDS011;64609;47.052;15.462;2023-04-10T13:12:31;8.35;;;7.07;;
75930;SDS011;64609;47.052;15.462;2023-04-10T13:14:59;7.75;;;6.78;;
75930;SDS011;64609;47.052;15.462;2023-04-10T13:17:25;8.93;;;7.20;;
75930;SDS011;64609;47.052;15.462;2023-04-10T13:19:51;8.30;;;7.00;;
75930;SDS011;64609;47.052;15.462;2023-04-10T13:22:17;9.60;;;7.25;;
75930;SDS011;64609;47.052;15.462;2023-04-10T13:24:43;9.50;;;7.05;;
75930;SDS011;64609;47.052;15.462;2023-04-10T13:27:09;10.82;;;7.22;;
75930;SDS011;64609;47.052;15.462;2023-04-10T13:29:35;9.07;;;6.95;;
75930;SDS011;64609;47.052;15.462;2023-04-10T13:32:03;8.20;;;7.13;;
75930;SDS011;64609;47.052;15.462;2023-04-10T13:34:32;10.25;;;7.38;;
75930;SDS011;64609;47.052;15.462;2023-04-10T13:36:59;8.23;;;6.43;;
75930;SDS011;64609;47.052;15.462;2023-04-10T13:39:27;9.43;;;6.60;;
75930;SDS011;64609;47.052;15.462;2023-04-10T13:41:53;7.55;;;6.30;;
75930;SDS011;64609;47.052;15.462;2023-04-10T13:44:19;8.20;;;6.55;;
75930;SDS011;64609;47.052;15.462;2023-04-10T13:46:45;7.80;;;6.43;;
75930;SDS011;64609;47.052;15.462;2023-04-10T13:49:11;7.85;;;6.15;;
75930;SDS011;64609;47.052;15.462;2023-04-10T13:51:41;8.18;;;6.78;;
75930;SDS011;64609;47.052;15.462;2023-04-10T13:54:06;7.30;;;6.60;;
75930;SDS011;64609;47.052;15.462;2023-04-10T13:56:34;8.18;;;6.70;;
75930;SDS011;64609;47.052;15.462;2023-04-10T13:59:00;8.40;;;6.80;;
75930;SDS011;64609;47.052;15.462;2023-04-10T14:01:25;11.07;;;7.13;;
75930;SDS011;64609;47.052;15.462;2023-04-10T14:03:51;20.48;;;7.30;;
75930;SDS011;64609;47.052;15.462;2023-04-10T14:06:16;11.27;;;7.20;;
75930;SDS011;64609;47.052;15.462;2023-04-10T14:08:42;7.85;;;6.72;;
75930;SDS011;64609;47.052;15.462;2023-04-10T14:11:08;11.32;;;6.90;;
75930;SDS011;64609;47.052;15.462;2023-04-10T14:13:33;18.70;;;7.35;;
75930;SDS011;64609;47.052;15.462;2023-04-10T14:15:59;10.23;;;7.20;;
75930;SDS011;64609;47.052;15.462;2023-04-10T14:18:25;8.95;;;6.20;;
75930;SDS011;64609;47.052;15.462;2023-04-10T14:20:50;8.50;;;6.68;;
75930;SDS011;64609;47.052;15.462;2023-04-10T14:23:16;10.40;;;7.20;;
75930;SDS011;64609;47.052;15.462;2023-04-10T14:25:44;13.15;;;7.22;;
75930;SDS011;64609;47.052;15.462;2023-04-10T14:28:11;10.27;;;6.90;;
75930;SDS011;64609;47.052;15.462;2023-04-10T14:30:43;26.88;;;7.57;;
75930;SDS011;64609;47.052;15.462;2023-04-10T14:33:09;13.23;;;6.68;;
75930;SDS011;64609;47.052;15.462;2023-04-10T14:35:35;7.65;;;6.60;;
75930;SDS011;64609;47.052;15.462;2023-04-10T14:38:01;7.13;;;6.20;;
75930;SDS011;64609;47.052;15.462;2023-04-10T14:40:27;8.35;;;6.35;;
75930;SDS011;64609;47.052;15.462;2023-04-10T14:42:53;9.50;;;6.55;;
75930;SDS011;64609;47.052;15.462;2023-04-10T14:45:18;7.43;;;6.47;;
75930;SDS011;64609;47.052;15.462;2023-04-10T14:47:44;22.33;;;7.03;;
75930;SDS011;64609;47.052;15.462;2023-04-10T14:50:11;10.27;;;6.25;;
75930;SDS011;64609;47.052;15.462;2023-04-10T14:52:37;7.85;;;6.22;;
75930;SDS011;64609;47.052;15.462;2023-04-10T14:55:02;7.90;;;6.68;;
75930;SDS011;64609;47.052;15.462;2023-04-10T14:57:28;7.55;;;6.40;;
75930;SDS011;64609;47.052;15.462;2023-04-10T14:59:54;10.50;;;6.70;;
75930;SDS011;64609;47.052;15.462;2023-04-10T15:02:20;7.80;;;6.78;;
75930;SDS011;64609;47.052;15.462;2023-04-10T15:04:46;7.40;;;5.95;;
75930;SDS011;64609;47.052;15.462;2023-04-10T15:07:14;8.00;;;6.68;;
75930;SDS011;64609;47.052;15.462;2023-04-10T15:09:40;9.20;;;6.30;;
75930;SDS011;64609;47.052;15.462;2023-04-10T15:12:07;9.18;;;6.72;;